sensor_id;sensor_type;location;lat;lon;timestamp;pressure;altitude;pressure_sealevel;temperature;humidity
83625;BME280;73589;41.158;-73.238;2024-02-26T00:00:24;101851.00;;;24.02;33.34
83625;BME280;73589;41.158;-73.238;2024-02-26T00:02:54;101852.66;;;24.00;33.21
83625;BME280;73589;41.158;-73.238;2024-02-26T00:05:25;101854.95;;;24.04;33.25
83625;BME280;73589;41.158;-73.238;2024-02-26T00:07:56;101857.80;;;24.05;33.21
83625;BME280;73589;41.158;-73.238;2024-02-26T00:10:26;101856.30;;;24.07;33.61
83625;BME280;73589;41.158;-73.238;2024-02-26T00:12:56;101849.95;;;24.06;33.73
83625;BME280;73589;41.158;-73.238;2024-02-26T00:15:28;101850.36;;;24.09;33.61
83625;BME280;73589;41.158;-73.238;2024-02-26T00:18:02;101848.30;;;24.07;33.66
83625;BME280;73589;41.158;-73.238;2024-02-26T00:20:28;101849.47;;;24.02;33.80
83625;BME280;73589;41.158;-73.238;2024-02-26T00:22:58;101849.75;;;24.03;33.92
83625;BME280;73589;41.158;-73.238;2024-02-26T00:25:28;101843.48;;;24.00;34.01
83625;BME280;73589;41.158;-73.238;2024-02-26T00:27:59;101839.26;;;23.92;34.17
83625;BME280;73589;41.158;-73.238;2024-02-26T00:30:29;101846.52;;;24.02;33.85
83625;BME280;73589;41.158;-73.238;2024-02-26T00:32:59;101845.36;;;23.99;33.76
83625;BME280;73589;41.158;-73.238;2024-02-26T00:35:29;101847.52;;;23.99;33.74
83625;BME280;73589;41.158;-73.238;2024-02-26T00:38:00;101848.58;;;23.98;33.73
83625;BME280;73589;41.158;-73.238;2024-02-26T00:40:31;101846.53;;;23.97;33.69
83625;BME280;73589;41.158;-73.238;2024-02-26T00:43:01;101843.52;;;23.93;33.70
83625;BME280;73589;41.158;-73.238;2024-02-26T00:45:32;101847.97;;;23.72;33.69
83625;BME280;73589;41.158;-73.238;2024-02-26T00:48:03;101853.24;;;23.73;33.70
83625;BME280;73589;41.158;-73.238;2024-02-26T00:50:32;101853.66;;;23.68;33.73
83625;BME280;73589;41.158;-73.238;2024-02-26T00:53:03;101857.18;;;23.75;33.71
83625;BME280;73589;41.158;-73.238;2024-02-26T00:55:32;101858.54;;;23.78;33.71
83625;BME280;73589;41.158;-73.238;2024-02-26T00:58:02;101853.66;;;23.82;33.89
83625;BME280;73589;41.158;-73.238;2024-02-26T01:00:33;101847.54;;;23.82;33.98
83625;BME280;73589;41.158;-73.238;2024-02-26T01:03:04;101846.84;;;23.84;33.94
83625;BME280;73589;41.158;-73.238;2024-02-26T01:05:34;101843.78;;;23.83;33.96
83625;BME280;73589;41.158;-73.238;2024-02-26T01:08:05;101844.58;;;23.81;34.03
83625;BME280;73589;41.158;-73.238;2024-02-26T01:10:35;101847.24;;;23.83;34.70
83625;BME280;73589;41.158;-73.238;2024-02-26T01:13:06;101845.05;;;23.77;34.72
83625;BME280;73589;41.158;-73.238;2024-02-26T01:15:36;101851.12;;;23.51;34.89
83625;BME280;73589;41.158;-73.238;2024-02-26T01:18:07;101844.35;;;23.64;34.69
83625;BME280;73589;41.158;-73.238;2024-02-26T01:20:37;101854.38;;;23.70;34.75
83625;BME280;73589;41.158;-73.238;2024-02-26T01:23:08;101859.08;;;23.70;35.12
83625;BME280;73589;41.158;-73.238;2024-02-26T01:25:38;101864.58;;;23.63;35.07
83625;BME280;73589;41.158;-73.238;2024-02-26T01:28:09;101860.30;;;23.76;35.47
83625;BME280;73589;41.158;-73.238;2024-02-26T01:30:40;101857.76;;;23.83;35.57
83625;BME280;73589;41.158;-73.238;2024-02-26T01:33:11;101858.59;;;23.83;35.59
83625;BME280;73589;41.158;-73.238;2024-02-26T01:35:41;101862.29;;;23.86;35.58
83625;BME280;73589;41.158;-73.238;2024-02-26T01:38:11;101863.47;;;23.89;35.59
83625;BME280;73589;41.158;-73.238;2024-02-26T01:40:41;101859.17;;;23.90;35.70
83625;BME280;73589;41.158;-73.238;2024-02-26T01:43:12;101849.69;;;23.86;36.09
83625;BME280;73589;41.158;-73.238;2024-02-26T01:45:43;101861.45;;;23.49;36.28
83625;BME280;73589;41.158;-73.238;2024-02-26T01:48:13;101864.90;;;23.60;36.09
83625;BME280;73589;41.158;-73.238;2024-02-26T01:50:43;101856.91;;;23.67;35.99
83625;BME280;73589;41.158;-73.238;2024-02-26T01:53:13;101855.75;;;23.71;35.80
83625;BME280;73589;41.158;-73.238;2024-02-26T01:55:43;101859.42;;;23.74;35.62
83625;BME280;73589;41.158;-73.238;2024-02-26T01:58:14;101857.47;;;23.71;35.55
83625;BME280;73589;41.158;-73.238;2024-02-26T02:00:44;101858.44;;;23.76;35.43
83625;BME280;73589;41.158;-73.238;2024-02-26T02:03:14;101862.29;;;23.74;35.37
83625;BME280;73589;41.158;-73.238;2024-02-26T02:05:45;101861.55;;;23.73;35.71
83625;BME280;73589;41.158;-73.238;2024-02-26T02:08:16;101859.36;;;23.77;37.15
83625;BME280;73589;41.158;-73.238;2024-02-26T02:10:46;101858.06;;;23.76;37.42
83625;BME280;73589;41.158;-73.238;2024-02-26T02:13:17;101866.85;;;23.78;37.49
83625;BME280;73589;41.158;-73.238;2024-02-26T02:15:47;101865.16;;;23.86;37.52
83625;BME280;73589;41.158;-73.238;2024-02-26T02:18:18;101868.49;;;23.89;37.56
83625;BME280;73589;41.158;-73.238;2024-02-26T02:20:48;101869.72;;;23.93;37.65
83625;BME280;73589;41.158;-73.238;2024-02-26T02:23:17;101870.60;;;23.94;37.66
83625;BME280;73589;41.158;-73.238;2024-02-26T02:25:48;101871.57;;;23.96;37.64
83625;BME280;73589;41.158;-73.238;2024-02-26T02:28:19;101872.10;;;24.00;37.67
83625;BME280;73589;41.158;-73.238;2024-02-26T02:30:50;101865.65;;;24.00;37.55
83625;BME280;73589;41.158;-73.238;2024-02-26T02:33:20;101861.25;;;23.97;37.04
83625;BME280;73589;41.158;-73.238;2024-02-26T02:35:50;101859.48;;;23.93;37.14
83625;BME280;73589;41.158;-73.238;2024-02-26T02:38:20;101854.34;;;23.87;37.45
83625;BME280;73589;41.158;-73.238;2024-02-26T02:40:51;101854.73;;;23.95;37.45
83625;BME280;73589;41.158;-73.238;2024-02-26T02:43:21;101848.74;;;23.97;37.31
83625;BME280;73589;41.158;-73.238;2024-02-26T02:45:50;101843.39;;;23.98;37.29
83625;BME280;73589;41.158;-73.238;2024-02-26T02:48:21;101845.63;;;23.95;37.34
83625;BME280;73589;41.158;-73.238;2024-02-26T02:50:52;101845.87;;;23.89;37.52
83625;BME280;73589;41.158;-73.238;2024-02-26T02:53:23;101839.79;;;23.93;37.49
83625;BME280;73589;41.158;-73.238;2024-02-26T02:55:52;101831.69;;;23.77;37.23
83625;BME280;73589;41.158;-73.238;2024-02-26T02:58:24;101837.89;;;23.70;36.77
83625;BME280;73589;41.158;-73.238;2024-02-26T03:00:53;101838.81;;;23.70;37.26
83625;BME280;73589;41.158;-73.238;2024-02-26T03:03:24;101842.08;;;23.72;37.28
83625;BME280;73589;41.158;-73.238;2024-02-26T03:05:54;101843.34;;;23.71;37.23
83625;BME280;73589;41.158;-73.238;2024-02-26T03:08:25;101846.95;;;23.78;37.14
83625;BME280;73589;41.158;-73.238;2024-02-26T03:10:54;101844.52;;;23.81;37.14
83625;BME280;73589;41.158;-73.238;2024-02-26T03:13:24;101835.88;;;23.77;37.25
83625;BME280;73589;41.158;-73.238;2024-02-26T03:15:55;101835.70;;;23.79;37.25
83625;BME280;73589;41.158;-73.238;2024-02-26T03:18:25;101829.53;;;23.48;37.00
83625;BME280;73589;41.158;-73.238;2024-02-26T03:20:55;101823.54;;;23.42;36.83
83625;BME280;73589;41.158;-73.238;2024-02-26T03:23:27;101823.71;;;23.54;36.97
83625;BME280;73589;41.158;-73.238;2024-02-26T03:25:56;101820.05;;;23.62;36.87
83625;BME280;73589;41.158;-73.238;2024-02-26T03:28:26;101817.82;;;23.65;36.77
83625;BME280;73589;41.158;-73.238;2024-02-26T03:30:58;101813.42;;;23.64;36.81
83625;BME280;73589;41.158;-73.238;2024-02-26T03:33:28;101810.80;;;23.64;36.78
83625;BME280;73589;41.158;-73.238;2024-02-26T03:35:58;101813.17;;;23.65;36.82
83625;BME280;73589;41.158;-73.238;2024-02-26T03:38:30;101812.12;;;23.70;36.77
83625;BME280;73589;41.158;-73.238;2024-02-26T03:40:59;101817.44;;;23.03;37.20
83625;BME280;73589;41.158;-73.238;2024-02-26T03:43:29;101812.27;;;23.35;36.72
83625;BME280;73589;41.158;-73.238;2024-02-26T03:46:01;101814.37;;;23.37;36.85
83625;BME280;73589;41.158;-73.238;2024-02-26T03:48:31;101821.64;;;23.59;36.76
83625;BME280;73589;41.158;-73.238;2024-02-26T03:51:02;101819.09;;;23.62;36.78
83625;BME280;73589;41.158;-73.238;2024-02-26T03:53:33;101815.32;;;23.63;36.86
83625;BME280;73589;41.158;-73.238;2024-02-26T03:56:04;101811.10;;;23.57;36.89
83625;BME280;73589;41.158;-73.238;2024-02-26T03:58:34;101804.51;;;23.37;36.84
83625;BME280;73589;41.158;-73.238;2024-02-26T04:01:04;101804.30;;;23.50;36.64
83625;BME280;73589;41.158;-73.238;2024-02-26T04:03:33;101798.07;;;23.57;36.72
83625;BME280;73589;41.158;-73.238;2024-02-26T04:06:07;101799.28;;;23.57;36.75
83625;BME280;73589;41.158;-73.238;2024-02-26T04:08:35;101795.61;;;23.58;36.73
83625;BME280;73589;41.158;-73.238;2024-02-26T04:11:05;101791.20;;;23.59;36.87
83625;BME280;73589;41.158;-73.238;2024-02-26T04:13:36;101781.37;;;23.47;37.02
83625;BME280;73589;41.158;-73.238;2024-02-26T04:16:06;101782.44;;;23.32;36.79
83625;BME280;73589;41.158;-73.238;2024-02-26T04:18:36;101775.52;;;23.48;36.47
83625;BME280;73589;41.158;-73.238;2024-02-26T04:21:07;101773.53;;;23.41;37.05
83625;BME280;73589;41.158;-73.238;2024-02-26T04:23:37;101776.25;;;23.46;36.71
83625;BME280;73589;41.158;-73.238;2024-02-26T04:26:06;101776.42;;;23.49;36.80
83625;BME280;73589;41.158;-73.238;2024-02-26T04:28:38;101776.81;;;23.51;36.79
83625;BME280;73589;41.158;-73.238;2024-02-26T04:31:08;101762.54;;;23.08;37.16
83625;BME280;73589;41.158;-73.238;2024-02-26T04:33:38;101762.96;;;23.02;36.97
83625;BME280;73589;41.158;-73.238;2024-02-26T04:36:13;101762.74;;;23.38;36.74
83625;BME280;73589;41.158;-73.238;2024-02-26T04:38:39;101754.85;;;23.44;36.65
83625;BME280;73589;41.158;-73.238;2024-02-26T04:41:09;101751.14;;;23.45;36.68
83625;BME280;73589;41.158;-73.238;2024-02-26T04:43:39;101738.73;;;23.49;36.73
83625;BME280;73589;41.158;-73.238;2024-02-26T04:46:10;101728.28;;;23.37;36.85
83625;BME280;73589;41.158;-73.238;2024-02-26T04:48:40;101719.91;;;23.12;36.84
83625;BME280;73589;41.158;-73.238;2024-02-26T04:51:11;101728.23;;;23.37;36.24
83625;BME280;73589;41.158;-73.238;2024-02-26T04:53:41;101725.26;;;23.41;36.53
83625;BME280;73589;41.158;-73.238;2024-02-26T04:56:11;101719.85;;;23.45;36.47
83625;BME280;73589;41.158;-73.238;2024-02-26T04:58:42;101718.63;;;23.45;36.48
83625;BME280;73589;41.158;-73.238;2024-02-26T05:01:12;101715.48;;;23.43;36.53
83625;BME280;73589;41.158;-73.238;2024-02-26T05:03:42;101722.27;;;22.97;36.78
83625;BME280;73589;41.158;-73.238;2024-02-26T05:06:13;101719.34;;;22.81;36.91
83625;BME280;73589;41.158;-73.238;2024-02-26T05:08:43;101725.29;;;23.27;36.33
83625;BME280;73589;41.158;-73.238;2024-02-26T05:11:13;101728.11;;;23.30;36.32
83625;BME280;73589;41.158;-73.238;2024-02-26T05:13:45;101731.76;;;23.35;36.18
83625;BME280;73589;41.158;-73.238;2024-02-26T05:16:15;101736.41;;;23.37;36.27
83625;BME280;73589;41.158;-73.238;2024-02-26T05:18:45;101736.32;;;23.41;36.21
83625;BME280;73589;41.158;-73.238;2024-02-26T05:21:17;101740.62;;;23.10;36.35
83625;BME280;73589;41.158;-73.238;2024-02-26T05:23:46;101743.75;;;23.03;36.32
83625;BME280;73589;41.158;-73.238;2024-02-26T05:26:20;101752.44;;;23.23;36.28
83625;BME280;73589;41.158;-73.238;2024-02-26T05:28:49;101756.86;;;23.31;36.34
83625;BME280;73589;41.158;-73.238;2024-02-26T05:31:19;101753.23;;;23.27;36.49
83625;BME280;73589;41.158;-73.238;2024-02-26T05:33:49;101749.19;;;23.28;36.41
83625;BME280;73589;41.158;-73.238;2024-02-26T05:36:21;101744.78;;;22.69;37.09
83625;BME280;73589;41.158;-73.238;2024-02-26T05:38:50;101746.60;;;23.13;36.35
83625;BME280;73589;41.158;-73.238;2024-02-26T05:41:21;101744.16;;;23.24;36.56
83625;BME280;73589;41.158;-73.238;2024-02-26T05:43:53;101745.92;;;23.26;36.69
83625;BME280;73589;41.158;-73.238;2024-02-26T05:46:22;101743.78;;;23.29;36.76
83625;BME280;73589;41.158;-73.238;2024-02-26T05:48:53;101744.57;;;22.79;37.22
83625;BME280;73589;41.158;-73.238;2024-02-26T05:51:24;101747.38;;;22.98;36.78
83625;BME280;73589;41.158;-73.238;2024-02-26T05:53:54;101747.63;;;23.03;36.77
83625;BME280;73589;41.158;-73.238;2024-02-26T05:56:25;101739.72;;;23.19;36.80
83625;BME280;73589;41.158;-73.238;2024-02-26T05:58:56;101738.24;;;23.20;36.87
83625;BME280;73589;41.158;-73.238;2024-02-26T06:01:26;101734.50;;;23.27;36.90
83625;BME280;73589;41.158;-73.238;2024-02-26T06:03:58;101727.98;;;23.23;37.16
83625;BME280;73589;41.158;-73.238;2024-02-26T06:06:28;101716.27;;;22.84;37.40
83625;BME280;73589;41.158;-73.238;2024-02-26T06:08:58;101720.46;;;22.70;37.50
83625;BME280;73589;41.158;-73.238;2024-02-26T06:11:29;101722.23;;;22.90;36.91
83625;BME280;73589;41.158;-73.238;2024-02-26T06:14:00;101727.40;;;23.20;36.74
83625;BME280;73589;41.158;-73.238;2024-02-26T06:16:30;101737.01;;;23.21;36.93
83625;BME280;73589;41.158;-73.238;2024-02-26T06:19:01;101740.80;;;23.28;36.90
83625;BME280;73589;41.158;-73.238;2024-02-26T06:21:32;101752.65;;;23.37;36.82
83625;BME280;73589;41.158;-73.238;2024-02-26T06:24:01;101759.41;;;23.34;36.89
83625;BME280;73589;41.158;-73.238;2024-02-26T06:26:33;101763.52;;;23.08;36.94
83625;BME280;73589;41.158;-73.238;2024-02-26T06:29:04;101756.60;;;22.96;36.77
83625;BME280;73589;41.158;-73.238;2024-02-26T06:31:33;101761.43;;;23.25;36.56
83625;BME280;73589;41.158;-73.238;2024-02-26T06:34:05;101761.18;;;23.26;36.64
83625;BME280;73589;41.158;-73.238;2024-02-26T06:36:35;101757.36;;;23.34;36.54
83625;BME280;73589;41.158;-73.238;2024-02-26T06:39:05;101743.89;;;23.34;36.55
83625;BME280;73589;41.158;-73.238;2024-02-26T06:41:37;101745.06;;;23.38;36.60
83625;BME280;73589;41.158;-73.238;2024-02-26T06:44:07;101745.13;;;23.43;36.49
83625;BME280;73589;41.158;-73.238;2024-02-26T06:46:37;101744.79;;;23.11;36.49
83625;BME280;73589;41.158;-73.238;2024-02-26T06:49:09;101746.10;;;23.03;36.29
83625;BME280;73589;41.158;-73.238;2024-02-26T06:51:39;101744.78;;;22.85;36.43
83625;BME280;73589;41.158;-73.238;2024-02-26T06:54:09;101749.46;;;23.18;36.12
83625;BME280;73589;41.158;-73.238;2024-02-26T06:56:40;101755.05;;;23.22;36.07
83625;BME280;73589;41.158;-73.238;2024-02-26T06:59:09;101756.54;;;23.26;36.08
83625;BME280;73589;41.158;-73.238;2024-02-26T07:01:41;101765.94;;;23.27;36.13
83625;BME280;73589;41.158;-73.238;2024-02-26T07:04:11;101763.21;;;23.02;36.40
83625;BME280;73589;41.158;-73.238;2024-02-26T07:06:41;101753.96;;;22.98;36.17
83625;BME280;73589;41.158;-73.238;2024-02-26T07:09:12;101758.36;;;22.94;36.07
83625;BME280;73589;41.158;-73.238;2024-02-26T07:11:42;101755.05;;;23.15;35.96
83625;BME280;73589;41.158;-73.238;2024-02-26T07:14:13;101757.29;;;23.17;35.95
83625;BME280;73589;41.158;-73.238;2024-02-26T07:16:44;101757.09;;;23.21;35.96
83625;BME280;73589;41.158;-73.238;2024-02-26T07:19:15;101762.59;;;23.24;35.99
83625;BME280;73589;41.158;-73.238;2024-02-26T07:21:44;101762.10;;;23.23;36.07
83625;BME280;73589;41.158;-73.238;2024-02-26T07:24:16;101755.54;;;22.87;36.46
83625;BME280;73589;41.158;-73.238;2024-02-26T07:26:47;101754.01;;;22.85;36.19
83625;BME280;73589;41.158;-73.238;2024-02-26T07:29:16;101756.99;;;22.91;35.94
83625;BME280;73589;41.158;-73.238;2024-02-26T07:31:47;101752.41;;;23.10;35.87
83625;BME280;73589;41.158;-73.238;2024-02-26T07:34:18;101755.63;;;23.18;35.85
83625;BME280;73589;41.158;-73.238;2024-02-26T07:36:48;101758.60;;;23.17;35.96
83625;BME280;73589;41.158;-73.238;2024-02-26T07:39:19;101760.37;;;23.23;35.94
83625;BME280;73589;41.158;-73.238;2024-02-26T07:41:50;101748.53;;;23.22;36.03
83625;BME280;73589;41.158;-73.238;2024-02-26T07:44:20;101751.74;;;23.01;36.08
83625;BME280;73589;41.158;-73.238;2024-02-26T07:46:51;101754.45;;;22.80;36.28
83625;BME280;73589;41.158;-73.238;2024-02-26T07:49:22;101760.32;;;22.71;36.19
83625;BME280;73589;41.158;-73.238;2024-02-26T07:51:52;101753.39;;;23.07;35.91
83625;BME280;73589;41.158;-73.238;2024-02-26T07:54:23;101748.19;;;23.10;36.16
83625;BME280;73589;41.158;-73.238;2024-02-26T07:56:53;101749.53;;;23.18;36.12
83625;BME280;73589;41.158;-73.238;2024-02-26T07:59:24;101745.80;;;23.20;36.13
83625;BME280;73589;41.158;-73.238;2024-02-26T08:01:54;101749.65;;;22.83;36.47
83625;BME280;73589;41.158;-73.238;2024-02-26T08:04:24;101754.17;;;22.83;36.19
83625;BME280;73589;41.158;-73.238;2024-02-26T08:06:55;101758.97;;;22.99;36.10
83625;BME280;73589;41.158;-73.238;2024-02-26T08:09:26;101752.14;;;23.09;36.10
83625;BME280;73589;41.158;-73.238;2024-02-26T08:11:57;101747.18;;;23.12;36.09
83625;BME280;73589;41.158;-73.238;2024-02-26T08:14:27;101743.63;;;23.15;36.14
83625;BME280;73589;41.158;-73.238;2024-02-26T08:16:57;101746.17;;;23.14;36.22
83625;BME280;73589;41.158;-73.238;2024-02-26T08:19:28;101739.52;;;23.14;36.28
83625;BME280;73589;41.158;-73.238;2024-02-26T08:21:58;101726.35;;;22.94;36.06
83625;BME280;73589;41.158;-73.238;2024-02-26T08:24:29;101720.95;;;22.95;35.74
83625;BME280;73589;41.158;-73.238;2024-02-26T08:27:00;101716.89;;;22.70;35.97
83625;BME280;73589;41.158;-73.238;2024-02-26T08:29:30;101707.99;;;23.00;35.78
83625;BME280;73589;41.158;-73.238;2024-02-26T08:32:01;101704.76;;;23.04;35.76
83625;BME280;73589;41.158;-73.238;2024-02-26T08:34:32;101699.59;;;23.08;35.72
83625;BME280;73589;41.158;-73.238;2024-02-26T08:37:03;101704.23;;;23.08;35.91
83625;BME280;73589;41.158;-73.238;2024-02-26T08:39:33;101699.88;;;22.90;36.14
83625;BME280;73589;41.158;-73.238;2024-02-26T08:42:04;101698.46;;;22.80;36.04
83625;BME280;73589;41.158;-73.238;2024-02-26T08:44:34;101702.47;;;22.49;36.36
83625;BME280;73589;41.158;-73.238;2024-02-26T08:47:05;101692.07;;;22.94;35.99
83625;BME280;73589;41.158;-73.238;2024-02-26T08:49:35;101697.50;;;22.98;35.99
83625;BME280;73589;41.158;-73.238;2024-02-26T08:52:06;101695.19;;;23.01;35.97
83625;BME280;73589;41.158;-73.238;2024-02-26T08:54:35;101688.27;;;23.02;36.00
83625;BME280;73589;41.158;-73.238;2024-02-26T08:57:06;101695.34;;;23.01;36.14
83625;BME280;73589;41.158;-73.238;2024-02-26T08:59:36;101684.33;;;22.54;36.53
83625;BME280;73589;41.158;-73.238;2024-02-26T09:02:07;101684.49;;;22.55;36.37
83625;BME280;73589;41.158;-73.238;2024-02-26T09:04:37;101681.61;;;22.67;35.99
83625;BME280;73589;41.158;-73.238;2024-02-26T09:07:07;101684.47;;;22.48;36.17
83625;BME280;73589;41.158;-73.238;2024-02-26T09:09:37;101685.45;;;22.81;35.85
83625;BME280;73589;41.158;-73.238;2024-02-26T09:12:09;101679.12;;;22.83;35.94
83625;BME280;73589;41.158;-73.238;2024-02-26T09:14:38;101682.06;;;22.88;35.88
83625;BME280;73589;41.158;-73.238;2024-02-26T09:17:08;101677.14;;;22.86;35.97
83625;BME280;73589;41.158;-73.238;2024-02-26T09:19:39;101675.48;;;22.80;36.01
83625;BME280;73589;41.158;-73.238;2024-02-26T09:22:09;101675.19;;;22.20;36.63
83625;BME280;73589;41.158;-73.238;2024-02-26T09:24:41;101671.40;;;22.70;35.89
83625;BME280;73589;41.158;-73.238;2024-02-26T09:27:11;101665.02;;;22.82;35.83
83625;BME280;73589;41.158;-73.238;2024-02-26T09:29:41;101666.43;;;22.90;35.80
83625;BME280;73589;41.158;-73.238;2024-02-26T09:32:12;101662.02;;;22.89;35.84
83625;BME280;73589;41.158;-73.238;2024-02-26T09:34:43;101656.99;;;22.93;35.88
83625;BME280;73589;41.158;-73.238;2024-02-26T09:37:13;101654.88;;;22.45;36.29
83625;BME280;73589;41.158;-73.238;2024-02-26T09:39:44;101662.04;;;22.37;36.36
83625;BME280;73589;41.158;-73.238;2024-02-26T09:42:17;101658.45;;;22.48;36.09
83625;BME280;73589;41.158;-73.238;2024-02-26T09:44:45;101657.60;;;22.72;35.58
83625;BME280;73589;41.158;-73.238;2024-02-26T09:47:15;101655.31;;;22.81;35.60
83625;BME280;73589;41.158;-73.238;2024-02-26T09:49:48;101650.00;;;22.86;35.66
83625;BME280;73589;41.158;-73.238;2024-02-26T09:52:17;101652.13;;;22.88;35.83
83625;BME280;73589;41.158;-73.238;2024-02-26T09:54:48;101651.19;;;22.91;35.87
83625;BME280;73589;41.158;-73.238;2024-02-26T09:57:18;101651.15;;;22.57;36.36
83625;BME280;73589;41.158;-73.238;2024-02-26T09:59:49;101654.86;;;22.36;36.56
83625;BME280;73589;41.158;-73.238;2024-02-26T10:02:20;101662.13;;;22.44;36.37
83625;BME280;73589;41.158;-73.238;2024-02-26T10:04:49;101661.68;;;22.77;36.05
83625;BME280;73589;41.158;-73.238;2024-02-26T10:07:19;101658.36;;;22.84;35.93
83625;BME280;73589;41.158;-73.238;2024-02-26T10:09:50;101658.18;;;22.85;35.93
83625;BME280;73589;41.158;-73.238;2024-02-26T10:12:21;101658.45;;;22.90;35.99
83625;BME280;73589;41.158;-73.238;2024-02-26T10:14:51;101658.44;;;22.86;36.17
83625;BME280;73589;41.158;-73.238;2024-02-26T10:17:23;101654.83;;;22.84;36.29
83625;BME280;73589;41.158;-73.238;2024-02-26T10:19:52;101656.91;;;22.79;36.59
83625;BME280;73589;41.158;-73.238;2024-02-26T10:22:23;101656.26;;;22.79;36.80
83625;BME280;73589;41.158;-73.238;2024-02-26T10:24:54;101652.24;;;22.75;36.95
83625;BME280;73589;41.158;-73.238;2024-02-26T10:27:24;101653.71;;;22.76;36.86
83625;BME280;73589;41.158;-73.238;2024-02-26T10:29:57;101651.94;;;22.75;36.98
83625;BME280;73589;41.158;-73.238;2024-02-26T10:32:25;101651.76;;;22.71;37.16
83625;BME280;73589;41.158;-73.238;2024-02-26T10:34:57;101650.72;;;22.70;37.30
83625;BME280;73589;41.158;-73.238;2024-02-26T10:37:26;101647.05;;;22.69;37.29
83625;BME280;73589;41.158;-73.238;2024-02-26T10:39:57;101648.12;;;22.67;37.35
83625;BME280;73589;41.158;-73.238;2024-02-26T10:42:28;101652.81;;;22.67;37.37
83625;BME280;73589;41.158;-73.238;2024-02-26T10:44:58;101651.13;;;22.14;37.49
83625;BME280;73589;41.158;-73.238;2024-02-26T10:47:29;101652.05;;;22.26;37.10
83625;BME280;73589;41.158;-73.238;2024-02-26T10:49:59;101654.47;;;22.52;36.78
83625;BME280;73589;41.158;-73.238;2024-02-26T10:52:32;101656.21;;;22.56;36.85
83625;BME280;73589;41.158;-73.238;2024-02-26T10:55:02;101649.24;;;22.60;36.81
83625;BME280;73589;41.158;-73.238;2024-02-26T10:57:31;101646.55;;;22.60;36.89
83625;BME280;73589;41.158;-73.238;2024-02-26T11:00:03;101642.54;;;22.59;36.89
83625;BME280;73589;41.158;-73.238;2024-02-26T11:02:34;101639.12;;;22.56;37.02
83625;BME280;73589;41.158;-73.238;2024-02-26T11:05:03;101635.23;;;22.53;37.09
83625;BME280;73589;41.158;-73.238;2024-02-26T11:07:34;101635.35;;;22.52;37.18
83625;BME280;73589;41.158;-73.238;2024-02-26T11:10:06;101639.31;;;22.52;37.22
83625;BME280;73589;41.158;-73.238;2024-02-26T11:12:35;101639.60;;;22.49;37.29
83625;BME280;73589;41.158;-73.238;2024-02-26T11:15:06;101647.34;;;22.49;37.36
83625;BME280;73589;41.158;-73.238;2024-02-26T11:17:38;101649.08;;;22.16;37.32
83625;BME280;73589;41.158;-73.238;2024-02-26T11:20:10;101656.78;;;22.33;36.74
83625;BME280;73589;41.158;-73.238;2024-02-26T11:22:38;101652.25;;;22.41;36.99
83625;BME280;73589;41.158;-73.238;2024-02-26T11:25:08;101648.06;;;22.44;37.13
83625;BME280;73589;41.158;-73.238;2024-02-26T11:27:42;101647.43;;;22.45;37.23
83625;BME280;73589;41.158;-73.238;2024-02-26T11:30:11;101649.10;;;22.46;37.31
83625;BME280;73589;41.158;-73.238;2024-02-26T11:32:39;101652.62;;;22.45;37.47
83625;BME280;73589;41.158;-73.238;2024-02-26T11:35:11;101653.71;;;22.47;37.55
83625;BME280;73589;41.158;-73.238;2024-02-26T11:37:41;101651.48;;;22.45;37.72
83625;BME280;73589;41.158;-73.238;2024-02-26T11:40:12;101650.79;;;22.44;37.95
83625;BME280;73589;41.158;-73.238;2024-02-26T11:42:44;101654.79;;;22.44;38.19
83625;BME280;73589;41.158;-73.238;2024-02-26T11:47:41;101648.92;;;22.54;38.82
83625;BME280;73589;41.158;-73.238;2024-02-26T11:55:13;101636.57;;;21.48;39.58
83625;BME280;73589;41.158;-73.238;2024-02-26T11:57:44;101639.60;;;21.68;39.17
83625;BME280;73589;41.158;-73.238;2024-02-26T12:00:14;101634.63;;;21.73;38.39
83625;BME280;73589;41.158;-73.238;2024-02-26T12:02:46;101648.18;;;21.94;37.63
83625;BME280;73589;41.158;-73.238;2024-02-26T12:05:17;101657.32;;;22.30;36.97
83625;BME280;73589;41.158;-73.238;2024-02-26T12:07:46;101652.83;;;22.39;36.85
83625;BME280;73589;41.158;-73.238;2024-02-26T12:10:22;101658.25;;;22.43;36.79
83625;BME280;73589;41.158;-73.238;2024-02-26T12:12:47;101664.47;;;22.46;36.83
83625;BME280;73589;41.158;-73.238;2024-02-26T12:15:16;101665.98;;;22.51;37.39
83625;BME280;73589;41.158;-73.238;2024-02-26T12:17:49;101657.66;;;22.64;37.30
83625;BME280;73589;41.158;-73.238;2024-02-26T12:20:19;101660.35;;;22.66;37.13
83625;BME280;73589;41.158;-73.238;2024-02-26T12:22:50;101665.07;;;22.82;37.37
83625;BME280;73589;41.158;-73.238;2024-02-26T12:25:25;101671.51;;;22.74;37.39
83625;BME280;73589;41.158;-73.238;2024-02-26T12:27:50;101683.68;;;22.88;38.22
83625;BME280;73589;41.158;-73.238;2024-02-26T12:30:20;101685.99;;;22.77;37.90
83625;BME280;73589;41.158;-73.238;2024-02-26T12:32:52;101688.17;;;22.80;37.83
83625;BME280;73589;41.158;-73.238;2024-02-26T12:35:20;101689.96;;;22.62;37.77
83625;BME280;73589;41.158;-73.238;2024-02-26T12:37:51;101705.48;;;22.55;37.64
83625;BME280;73589;41.158;-73.238;2024-02-26T12:40:22;101698.07;;;22.57;37.33
83625;BME280;73589;41.158;-73.238;2024-02-26T12:42:53;101689.80;;;22.49;37.35
83625;BME280;73589;41.158;-73.238;2024-02-26T12:45:23;101682.22;;;22.64;37.10
83625;BME280;73589;41.158;-73.238;2024-02-26T12:47:53;101680.93;;;22.65;37.08
83625;BME280;73589;41.158;-73.238;2024-02-26T12:50:22;101691.22;;;22.66;37.00
83625;BME280;73589;41.158;-73.238;2024-02-26T12:52:53;101699.84;;;22.54;37.10